Time;durP1;ratioP1;P1;durP2;ratioP2;P2;SDS_P1;SDS_P2;PMS_P1;PMS_P2;Temp;Humidity;BMP_temperature;BMP_pressure;BME280_temperature;BME280_humidity;BME280_pressure;Samples;Min_cycle;Max_cycle;Signal;HPM_P1;HPM_P2
2021/05/03 00:04:47;;;;;;;3.17;1.77;;;;;;;6.27;60.64;97880.25;10399621;28;20056;-74
2021/05/03 00:10:08;;;;;;;3.05;1.70;;;;;;;6.21;60.68;97883.25;10413770;28;20396;-73
2021/05/03 00:15:29;;;;;;;2.92;1.60;;;;;;;6.08;60.90;97897.38;10399714;28;20068;-74
2021/05/03 00:20:50;;;;;;;2.85;1.65;;;;;;;6.01;60.90;97893.31;10413516;28;20117;-74
2021/05/03 00:26:11;;;;;;;3.17;1.58;;;;;;;5.95;60.86;97901.09;10399395;28;20057;-73
2021/05/03 00:31:32;;;;;;;4.15;1.70;;;;;;;5.77;61.35;97898.72;10413381;28;20046;-73
2021/05/03 00:36:52;;;;;;;2.92;1.33;;;;;;;5.56;61.38;97899.72;10399175;28;20045;-74
2021/05/03 00:42:12;;;;;;;2.58;1.80;;;;;;;5.37;61.88;97894.56;10413140;28;20447;-73
2021/05/03 00:47:33;;;;;;;4.95;1.67;;;;;;;5.20;61.92;97902.72;10418732;28;20037;-74
2021/05/03 00:52:53;;;;;;;3.50;2.05;;;;;;;5.07;62.00;97900.88;10406246;28;20049;-74
2021/05/03 00:58:15;;;;;;;3.67;1.90;;;;;;;4.98;62.69;97909.00;10406100;28;20443;-74
2021/05/03 01:03:36;;;;;;;2.85;1.63;;;;;;;4.84;62.75;97911.22;10405288;28;20049;-73
2021/05/03 01:08:56;;;;;;;3.28;1.75;;;;;;;4.76;62.49;97910.47;10419607;28;20041;-73
2021/05/03 01:14:17;;;;;;;3.42;1.95;;;;;;;4.74;63.14;97921.34;10391640;28;20442;-73
2021/05/03 01:19:37;;;;;;;3.42;1.70;;;;;;;4.64;63.51;97926.69;10405332;28;20045;-74
2021/05/03 01:24:58;;;;;;;2.80;1.88;;;;;;;4.57;63.36;97933.66;10419020;28;20535;-74
2021/05/03 01:30:19;;;;;;;3.63;1.90;;;;;;;4.55;63.80;97938.25;10418828;28;20045;-74
2021/05/03 01:35:41;;;;;;;2.35;1.40;;;;;;;4.74;63.25;97935.91;10418511;28;20382;-73
2021/05/03 01:41:02;;;;;;;3.17;1.55;;;;;;;4.77;62.89;97943.09;10390925;28;20050;-74
2021/05/03 01:46:22;;;;;;;3.15;1.80;;;;;;;4.80;63.55;97944.75;10404609;28;20067;-73
2021/05/03 01:51:43;;;;;;;2.53;1.60;;;;;;;4.81;63.54;97951.75;10403886;28;20467;-73
2021/05/03 01:57:03;;;;;;;2.45;1.35;;;;;;;4.72;62.98;97952.28;10431357;28;20065;-73
2021/05/03 02:02:24;;;;;;;2.92;1.50;;;;;;;4.55;63.62;97946.56;10389514;28;20103;-73
2021/05/03 02:07:44;;;;;;;3.03;1.70;;;;;;;4.37;63.44;97951.13;10389576;28;20045;-74
2021/05/03 02:13:05;;;;;;;2.40;1.25;;;;;;;4.24;63.35;97959.53;10389563;28;20042;-73
2021/05/03 02:18:26;;;;;;;5.22;1.42;;;;;;;4.15;64.11;97955.28;10402907;28;20079;-74
2021/05/03 02:23:46;;;;;;;3.75;1.40;;;;;;;4.07;63.81;97959.28;10416765;28;20045;-73
2021/05/03 02:29:06;;;;;;;3.65;2.28;;;;;;;3.99;63.99;97962.00;10402448;28;20530;-74
2021/05/03 02:34:27;;;;;;;3.72;1.38;;;;;;;3.84;64.63;97959.88;10388726;28;20045;-74
2021/05/03 02:39:47;;;;;;;2.50;1.20;;;;;;;3.80;64.12;97953.25;10402121;28;20117;-74
2021/05/03 02:45:09;;;;;;;4.50;1.42;;;;;;;3.74;64.71;97956.91;10388268;28;20462;-74
2021/05/03 02:50:29;;;;;;;2.67;1.70;;;;;;;3.66;65.16;97960.88;10401876;28;20052;-73
2021/05/03 02:55:49;;;;;;;2.85;1.27;;;;;;;3.58;65.05;97965.66;10401588;28;20052;-73
2021/05/03 03:01:09;;;;;;;1.92;1.20;;;;;;;3.52;65.25;97965.03;10401489;28;20041;-73
2021/05/03 03:06:30;;;;;;;1.90;1.02;;;;;;;3.49;65.29;97968.91;10400414;28;20103;-73
2021/05/03 03:11:50;;;;;;;3.88;1.70;;;;;;;3.43;65.25;97978.03;10415301;28;20550;-73
2021/05/03 03:17:10;;;;;;;2.28;1.27;;;;;;;3.39;65.06;97987.97;10401063;28;20480;-73
2021/05/03 03:22:33;;;;;;;3.50;1.70;;;;;;;3.31;65.35;97998.19;10414459;28;20041;-73
2021/05/03 03:27:54;;;;;;;3.05;1.58;;;;;;;3.24;65.68;98004.38;10414453;28;20041;-73
2021/05/03 03:33:14;;;;;;;2.55;1.20;;;;;;;3.20;65.53;97987.44;10414304;28;20045;-73
2021/05/03 03:38:34;;;;;;;3.70;1.67;;;;;;;3.21;66.11;97994.44;10414063;28;20443;-73
2021/05/03 03:43:55;;;;;;;3.05;1.50;;;;;;;3.23;66.11;98002.91;10386445;28;20045;-73
2021/05/03 03:49:16;;;;;;;2.55;1.23;;;;;;;3.29;65.45;98012.53;10383902;28;20412;-74
2021/05/03 03:54:36;;;;;;;4.38;1.30;;;;;;;3.35;65.30;98012.38;10397919;28;20080;-73
2021/05/03 03:59:58;;;;;;;3.20;1.50;;;;;;;3.41;65.88;98008.22;10411836;28;20051;-73
2021/05/03 04:27:19;;;;;;;3.67;1.50;;;;;;;4.63;64.42;98035.78;10421222;28;20038;-73
2021/05/03 04:32:40;;;;;;;3.95;1.40;;;;;;;4.83;63.14;98037.72;10407249;28;20451;-73
2021/05/03 04:38:00;;;;;;;3.55;1.30;;;;;;;5.00;62.91;98039.22;10406930;28;20053;-73
2021/05/03 04:43:21;;;;;;;5.63;1.60;;;;;;;5.22;63.00;98048.88;10420597;28;20045;-73
2021/05/03 04:48:42;;;;;;;3.97;1.40;;;;;;;5.43;62.61;98043.91;10406471;28;20392;-73
2021/05/03 04:54:02;;;;;;;6.50;2.10;;;;;;;5.64;62.31;98054.78;10420367;28;20049;-73
2021/05/03 04:59:23;;;;;;;2.47;1.20;;;;;;;5.87;62.52;98058.28;10434033;28;20049;-73
2021/05/03 05:04:44;;;;;;;4.38;1.13;;;;;;;5.99;61.01;98062.19;10405899;28;20058;-72
2021/05/03 05:10:05;;;;;;;2.85;1.70;;;;;;;6.22;61.92;98064.91;10419767;28;20416;-74
2021/05/03 05:15:26;;;;;;;3.03;1.40;;;;;;;6.81;61.50;98072.84;10405505;28;20056;-74
2021/05/03 05:20:51;;;;;;;3.15;2.05;;;;;;;7.47;58.96;98070.81;10419006;28;20049;-74
2021/05/03 05:26:11;;;;;;;3.53;2.05;;;;;;;8.64;58.46;98070.69;10404819;28;20037;-74
2021/05/03 05:31:31;;;;;;;3.67;1.65;;;;;;;10.31;57.52;98075.09;10400305;28;20098;-73
2021/05/03 05:36:52;;;;;;;2.58;1.50;;;;;;;13.36;53.96;98084.56;10431887;28;20045;-75
2021/05/03 05:42:13;;;;;;;3.67;1.40;;;;;;;13.43;52.67;98086.41;10459423;28;20369;-75
2021/05/03 05:47:33;;;;;;;2.60;1.20;;;;;;;13.12;50.75;98094.22;10445434;28;20041;-75
2021/05/03 05:52:57;;;;;;;1.73;1.25;;;;;;;12.53;48.24;98098.84;10459507;28;20048;-74
2021/05/03 05:58:17;;;;;;;2.53;1.33;;;;;;;11.93;51.93;98101.88;10483360;28;20041;-74
2021/05/03 06:03:39;;;;;;;3.42;1.30;;;;;;;17.60;48.87;98107.34;10430448;28;20127;-75
2021/05/03 06:09:01;;;;;;;2.92;1.33;;;;;;;15.60;40.01;98110.78;10448943;28;20483;-75
2021/05/03 06:14:21;;;;;;;3.55;1.45;;;;;;;14.55;42.73;98106.38;10485305;28;20449;-75
2021/05/03 06:19:42;;;;;;;3.40;1.90;;;;;;;13.92;41.92;98117.44;10499174;28;20101;-76
2021/05/03 06:25:03;;;;;;;3.58;1.50;;;;;;;17.86;39.38;98117.06;10484895;28;20057;-76
2021/05/03 06:30:23;;;;;;;3.15;1.35;;;;;;;21.01;37.78;98131.38;10498512;28;20051;-75
2021/05/03 06:35:44;;;;;;;2.78;1.20;;;;;;;26.67;32.25;98111.44;10498484;28;20055;-76
2021/05/03 06:41:04;;;;;;;2.63;1.02;;;;;;;31.02;24.87;98134.28;10484032;28;20125;-73
2021/05/03 06:46:25;;;;;;;1.75;1.00;;;;;;;35.00;18.81;98139.00;10458316;28;20049;-74
2021/05/03 06:51:45;;;;;;;2.88;0.80;;;;;;;39.46;12.32;98138.91;10456304;28;20503;-77
2021/05/03 06:57:06;;;;;;;2.33;0.70;;;;;;;39.91;9.28;98122.38;10442514;28;20045;-75
2021/05/03 07:02:27;;;;;;;2.08;0.93;;;;;;;39.58;8.77;98122.41;10441776;28;20057;-75
2021/05/03 07:07:47;;;;;;;4.03;0.88;;;;;;;36.94;10.05;98124.94;10441795;28;20040;-75
2021/05/03 07:13:08;;;;;;;1.63;0.77;;;;;;;38.17;9.96;98127.97;10441915;28;20052;-75
2021/05/03 07:18:29;;;;;;;2.97;0.95;;;;;;;41.23;7.83;98135.25;10442188;28;20052;-74
2021/05/03 07:23:50;;;;;;;1.95;0.75;;;;;;;41.20;6.81;98134.63;10441736;28;20476;-75
2021/05/03 07:29:11;;;;;;;2.22;0.70;;;;;;;42.95;6.80;98127.56;10455330;28;20067;-76
2021/05/03 07:34:32;;;;;;;2.78;0.80;;;;;;;43.74;6.13;98122.94;10455317;28;20037;-75
2021/05/03 07:39:53;;;;;;;1.83;0.57;;;;;;;42.25;6.54;98125.53;10441527;28;20480;-76
2021/05/03 07:45:14;;;;;;;1.67;0.52;;;;;;;42.56;6.00;98123.84;10457011;28;20044;-76
2021/05/03 07:50:37;;;;;;;1.27;0.50;;;;;;;44.29;4.86;98119.53;10479265;28;20431;-76
2021/05/03 07:55:58;;;;;;;4.28;0.70;;;;;;;39.70;5.89;98121.88;10459138;28;20049;-75
2021/05/03 08:01:18;;;;;;;1.63;0.80;;;;;;;29.30;9.57;98111.22;10462576;28;20045;-74
2021/05/03 08:06:39;;;;;;;2.08;0.80;;;;;;;23.70;13.03;98116.72;10445145;28;20053;-75
2021/05/03 08:12:00;;;;;;;3.17;0.82;;;;;;;19.84;15.92;98120.22;10444896;28;20037;-75
2021/05/03 08:17:20;;;;;;;2.22;0.60;;;;;;;19.49;18.83;98129.47;10445032;28;20064;-75
2021/05/03 08:22:41;;;;;;;5.32;0.70;;;;;;;23.14;18.97;98133.94;10448336;28;20049;-75
2021/05/03 08:28:01;;;;;;;3.20;0.80;;;;;;;28.65;16.27;98137.03;10462369;28;20045;-75
2021/05/03 08:33:22;;;;;;;2.72;0.50;;;;;;;37.41;9.38;98141.56;10447867;28;20048;-77
2021/05/03 08:38:42;;;;;;;1.80;0.65;;;;;;;30.55;10.51;98131.69;10434237;28;20494;-75
2021/05/03 08:44:03;;;;;;;2.00;0.88;;;;;;;24.15;13.70;98129.06;10447686;28;20392;-75
2021/05/03 08:54:53;;;;;;;3.03;0.70;;;;;;;17.77;19.32;98143.47;10438092;28;20472;-75
2021/05/03 09:00:15;;;;;;;3.08;0.85;;;;;;;16.70;20.34;98141.88;10447205;28;20099;-74
2021/05/03 09:05:35;;;;;;;2.08;0.60;;;;;;;16.08;22.43;98140.06;10432007;28;20072;-75
2021/05/03 09:10:56;;;;;;;4.35;0.80;;;;;;;17.49;22.38;98142.13;10446647;28;20111;-75
2021/05/03 09:16:22;;;;;;;2.85;0.80;;;;;;;16.68;22.40;98136.84;10447150;28;20073;-74
2021/05/03 09:21:43;;;;;;;1.83;0.90;;;;;;;15.04;23.66;98140.06;10446227;28;20037;-74
2021/05/03 09:27:07;;;;;;;2.08;0.90;;;;;;;14.12;25.41;98143.19;10445998;28;20041;-74
2021/05/03 09:32:30;;;;;;;3.08;0.98;;;;;;;14.75;26.67;98132.81;10446313;28;20040;-75
2021/05/03 09:37:51;;;;;;;1.70;0.70;;;;;;;18.46;25.72;98123.91;10472995;28;20064;-77
2021/05/03 09:43:11;;;;;;;1.13;0.70;;;;;;;24.54;21.39;98132.69;10444592;28;20376;-76
2021/05/03 09:48:31;;;;;;;3.15;0.60;;;;;;;31.02;16.62;98120.59;10445256;28;20530;-77
2021/05/03 09:54:27;;;;;;;2.15;0.70;;;;;;;25.67;15.45;98118.81;10445067;28;20041;-75
2021/05/03 09:59:49;;;;;;;2.10;0.40;;;;;;;20.63;17.96;98127.28;10458905;28;20053;-79
2021/05/03 10:05:13;;;;;;;1.00;0.50;;;;;;;17.70;19.82;98119.13;10444898;28;20103;-77
2021/05/03 10:10:39;;;;;;;3.92;0.50;;;;;;;20.19;20.14;98122.22;10445091;28;20493;-79
2021/05/03 10:16:00;;;;;;;0.95;0.30;;;;;;;32.09;13.12;98121.00;10444498;28;20045;-76
2021/05/03 10:21:20;;;;;;;1.40;0.43;;;;;;;37.10;8.69;98130.22;10443924;28;20037;-77
2021/05/03 10:26:43;;;;;;;2.45;0.40;;;;;;;30.81;11.10;98130.84;10443869;28;20049;-76
2021/05/03 10:32:04;;;;;;;5.18;0.30;;;;;;;26.49;12.42;98124.16;10433167;28;20041;-76
2021/05/03 10:37:31;;;;;;;1.23;0.30;;;;;;;22.72;14.29;98107.97;10410383;28;20040;-76
2021/05/03 10:43:07;;;;;;;1.20;0.35;;;;;;;20.39;16.16;98112.97;10456075;28;20392;-77
2021/05/03 10:48:31;;;;;;;1.77;0.47;;;;;;;21.83;17.08;98100.56;10455260;28;20044;-77
2021/05/03 10:53:51;;;;;;;1.42;0.50;;;;;;;22.88;16.01;98102.00;10455134;28;20063;-75
2021/05/03 10:59:13;;;;;;;1.98;0.60;;;;;;;21.31;16.80;98088.34;10444293;28;20385;-77
2021/05/03 11:04:36;;;;;;;1.73;0.43;;;;;;;20.44;17.42;98100.41;10436531;28;20044;-77
2021/05/03 11:09:56;;;;;;;1.47;0.40;;;;;;;19.36;18.00;98087.94;10444921;28;20407;-76
2021/05/03 11:15:22;;;;;;;2.28;0.40;;;;;;;18.98;19.19;98085.06;10439588;28;20043;-76
2021/05/03 11:21:03;;;;;;;1.50;0.40;;;;;;;20.13;19.12;98081.59;10442394;28;20396;-75
2021/05/03 11:26:35;;;;;;;2.17;0.50;;;;;;;20.08;18.85;98080.00;10452297;28;20408;-75
2021/05/03 11:31:55;;;;;;;3.13;0.40;;;;;;;19.98;18.94;98074.69;10439446;28;20454;-75
2021/05/03 11:37:23;;;;;;;0.98;0.30;;;;;;;20.27;19.22;98068.66;10453470;28;20507;-76
2021/05/03 11:48:40;;;;;;;1.48;0.32;;;;;;;19.83;19.20;98084.78;10474805;28;20057;-75
2021/05/03 11:54:00;;;;;;;0.95;0.43;;;;;;;20.02;19.25;98084.06;10440052;28;20037;-76
2021/05/03 11:59:22;;;;;;;1.50;0.30;;;;;;;20.22;19.01;98075.53;10439008;28;20045;-76
2021/05/03 12:04:54;;;;;;;0.70;0.30;;;;;;;19.75;19.28;98067.47;10443888;28;20060;-76
2021/05/03 12:10:15;;;;;;;2.60;0.30;;;;;;;19.58;19.19;98077.47;10440324;28;20041;-80
2021/05/03 12:15:35;;;;;;;4.15;0.47;;;;;;;18.46;19.57;98061.72;10418618;28;20042;-76
2021/05/03 12:20:56;;;;;;;2.28;0.40;;;;;;;17.67;20.00;98061.09;10385528;28;20045;-76
2021/05/03 12:26:16;;;;;;;0.65;0.20;;;;;;;16.85;20.86;98062.25;10424176;28;20128;-75
2021/05/03 12:31:37;;;;;;;1.38;0.40;;;;;;;17.66;20.96;98062.44;10440641;28;20683;-75
2021/05/03 12:37:23;;;;;;;0.93;0.40;;;;;;;18.09;20.93;98053.06;10440519;28;20068;-75
2021/05/03 12:42:47;;;;;;;2.33;0.50;;;;;;;18.33;20.83;98056.19;10420581;28;20048;-75
2021/05/03 12:53:34;;;;;;;1.35;0.68;;;;;;;18.22;21.05;98032.44;10460292;28;20079;-76
2021/05/03 13:32:52;;;;;;;1.60;0.32;;;;;;;17.19;21.85;97998.28;10459971;28;20041;-76
2021/05/03 13:38:12;;;;;;;2.70;0.40;;;;;;;17.41;21.58;98004.94;10459845;28;20048;-76
2021/05/03 13:43:32;;;;;;;0.47;0.20;;;;;;;17.84;21.50;98006.81;10459457;28;20045;-77
2021/05/03 13:48:54;;;;;;;0.95;0.28;;;;;;;17.97;21.40;98000.34;10459156;28;20068;-76
2021/05/03 13:54:15;;;;;;;1.58;0.30;;;;;;;17.94;21.25;97993.13;10444827;28;20045;-75
2021/05/03 13:59:36;;;;;;;0.88;0.20;;;;;;;17.48;21.25;97988.28;10459075;28;20040;-75
2021/05/03 14:04:56;;;;;;;0.43;0.20;;;;;;;16.75;21.63;97992.03;10458428;28;20068;-74
2021/05/03 14:10:17;;;;;;;1.05;0.30;;;;;;;16.21;22.05;97990.84;10444194;28;20498;-76
2021/05/03 14:15:37;;;;;;;1.25;0.30;;;;;;;16.47;22.42;97980.09;10444626;28;20037;-75
2021/05/03 14:21:00;;;;;;;0.70;0.30;;;;;;;16.90;22.04;97981.44;10443095;28;20048;-74
2021/05/03 14:26:23;;;;;;;3.57;0.40;;;;;;;17.00;22.11;97964.97;10430560;28;20561;-73
2021/05/03 14:31:47;;;;;;;1.95;0.30;;;;;;;16.81;22.27;97969.03;10415969;28;20041;-75
2021/05/03 14:37:08;;;;;;;1.95;0.40;;;;;;;16.76;22.37;97970.94;10402873;28;20073;-74
2021/05/03 14:42:29;;;;;;;2.40;0.20;;;;;;;16.43;22.42;97967.91;10401797;28;20053;-74
2021/05/03 14:48:00;;;;;;;0.75;0.30;;;;;;;15.92;22.89;97957.72;10415836;28;20038;-74
2021/05/03 14:58:41;;;;;;;1.02;0.50;;;;;;;15.53;23.32;97962.69;10456558;28;20048;-73
2021/05/03 15:04:04;;;;;;;1.02;0.30;;;;;;;15.47;23.76;97954.69;10427091;28;20049;-73
2021/05/03 15:09:26;;;;;;;2.60;0.37;;;;;;;16.15;23.83;97947.56;10429276;28;20110;-73
2021/05/03 15:25:55;;;;;;;0.70;0.30;;;;;;;15.48;24.23;97935.72;10455538;28;20048;-75
2021/05/03 15:36:56;;;;;;;1.00;0.50;;;;;;;15.24;24.52;97919.03;10433170;28;20044;-74
2021/05/03 15:42:16;;;;;;;0.75;0.30;;;;;;;14.94;24.63;97920.25;10441690;28;20570;-74
2021/05/03 15:47:37;;;;;;;3.03;0.40;;;;;;;14.56;24.99;97920.38;10441075;28;20090;-75
2021/05/03 15:52:57;;;;;;;0.90;0.30;;;;;;;14.34;25.33;97913.50;10441376;28;20045;-75
2021/05/03 15:58:18;;;;;;;2.80;0.60;;;;;;;14.15;25.42;97916.63;10428217;28;20056;-77
2021/05/03 16:03:39;;;;;;;2.25;0.60;;;;;;;13.87;25.74;97926.97;10439958;28;20499;-77
2021/05/03 16:09:00;;;;;;;1.15;0.60;;;;;;;13.96;27.01;97929.63;10400127;28;20495;-76
2021/05/03 16:14:20;;;;;;;2.08;0.40;;;;;;;14.12;26.63;97912.28;10449384;28;20037;-76
2021/05/03 16:19:40;;;;;;;1.65;0.40;;;;;;;14.36;26.70;97912.88;10449069;28;20545;-76
2021/05/03 16:25:01;;;;;;;1.40;0.45;;;;;;;14.35;26.35;97914.22;10435990;28;20091;-80
2021/05/03 16:30:22;;;;;;;0.80;0.35;;;;;;;14.21;26.95;97900.88;10447789;28;20045;-76
2021/05/03 16:35:42;;;;;;;0.90;0.30;;;;;;;14.07;27.20;97902.16;10462570;28;20045;-75
2021/05/03 16:41:03;;;;;;;1.85;0.52;;;;;;;14.00;27.22;97892.66;10447594;28;20052;-77
2021/05/03 16:46:25;;;;;;;1.77;0.45;;;;;;;13.95;27.17;97882.56;10449129;28;20045;-77
2021/05/03 16:51:46;;;;;;;1.83;0.50;;;;;;;13.89;27.55;97880.13;10462098;28;21545;-78
2021/05/03 16:57:07;;;;;;;1.73;0.32;;;;;;;13.71;27.53;97865.09;10449150;28;20427;-72
2021/05/03 17:02:28;;;;;;;0.95;0.40;;;;;;;13.34;27.89;97867.84;10446845;28;20064;-73
2021/05/03 17:07:48;;;;;;;1.00;0.50;;;;;;;12.97;28.02;97870.53;10446914;28;20041;-75
2021/05/03 17:13:09;;;;;;;1.20;0.40;;;;;;;12.90;28.18;97866.63;10447776;28;20103;-75
2021/05/03 17:18:30;;;;;;;2.40;0.80;;;;;;;13.06;28.11;97870.41;10447548;28;20048;-74
2021/05/03 17:23:50;;;;;;;4.63;1.75;;;;;;;13.24;28.60;97876.38;10446611;28;20053;-76
2021/05/03 17:29:11;;;;;;;3.08;1.17;;;;;;;13.30;28.19;97867.59;10445039;28;20044;-75
2021/05/03 17:34:31;;;;;;;1.40;0.70;;;;;;;13.25;28.23;97872.25;10460136;28;20110;-76
2021/05/03 17:39:51;;;;;;;1.80;0.47;;;;;;;13.18;28.21;97868.31;10446266;28;20044;-75
2021/05/03 17:45:12;;;;;;;0.60;0.40;;;;;;;12.93;28.34;97873.06;10445601;28;20053;-75
2021/05/03 17:50:33;;;;;;;1.38;0.50;;;;;;;12.51;28.64;97869.88;10445667;28;20045;-74
2021/05/03 17:55:55;;;;;;;1.75;0.50;;;;;;;12.11;28.76;97876.47;10444947;28;20044;-77
2021/05/03 18:01:15;;;;;;;2.22;0.50;;;;;;;11.80;29.33;97870.25;10443991;28;20041;-77
2021/05/03 18:06:37;;;;;;;1.83;0.50;;;;;;;11.51;29.71;97871.19;10450528;28;20494;-76
2021/05/03 18:11:57;;;;;;;3.88;1.13;;;;;;;11.27;29.99;97869.56;10453529;28;20373;-75
2021/05/03 18:17:18;;;;;;;2.40;1.00;;;;;;;11.10;29.86;97876.88;10454372;28;20045;-75
2021/05/03 18:22:39;;;;;;;1.83;0.80;;;;;;;10.86;30.60;97867.56;10427905;28;20044;-76
2021/05/03 18:27:59;;;;;;;2.90;1.10;;;;;;;10.66;31.08;97862.66;10435297;28;20514;-73
2021/05/03 18:33:20;;;;;;;2.28;0.77;;;;;;;10.45;31.27;97866.09;10434146;28;20041;-73
2021/05/03 18:38:44;;;;;;;4.72;1.05;;;;;;;10.24;31.96;97863.97;10449827;28;20037;-76
2021/05/03 18:44:05;;;;;;;5.75;1.33;;;;;;;10.07;32.39;97861.31;10457412;28;20048;-77
2021/05/03 18:49:26;;;;;;;2.22;0.93;;;;;;;9.91;32.82;97869.97;10457862;28;20041;-75
2021/05/03 18:54:48;;;;;;;3.38;1.55;;;;;;;9.76;33.17;97864.72;10456631;28;20049;-75
2021/05/03 19:00:09;;;;;;;3.15;1.23;;;;;;;9.62;33.50;97867.19;10429209;28;20464;-75
2021/05/03 19:05:29;;;;;;;5.68;2.33;;;;;;;9.52;33.96;97874.81;10456403;28;20053;-75
2021/05/03 19:10:52;;;;;;;5.53;2.85;;;;;;;9.36;34.66;97866.00;10456546;28;20064;-76
2021/05/03 19:16:13;;;;;;;3.78;1.95;;;;;;;9.27;34.92;97863.94;10456071;28;20511;-75
2021/05/03 19:21:36;;;;;;;5.40;1.63;;;;;;;9.16;35.26;97858.91;10455938;28;20044;-73
2021/05/03 19:26:56;;;;;;;4.35;1.95;;;;;;;9.11;35.79;97857.88;10455736;28;20102;-73
2021/05/03 19:37:39;;;;;;;3.05;1.40;;;;;;;9.08;36.05;97855.53;10455534;28;20060;-73
2021/05/03 19:42:59;;;;;;;3.88;1.45;;;;;;;8.99;36.84;97854.19;10441574;28;20045;-74
2021/05/03 19:48:22;;;;;;;4.60;1.70;;;;;;;8.91;36.79;97847.28;10456106;28;20049;-76
2021/05/03 19:54:05;;;;;;;5.85;2.00;;;;;;;8.82;36.75;97838.31;10449967;28;20048;-76
2021/05/03 20:05:05;;;;;;;4.97;2.05;;;;;;;8.67;37.71;97835.75;10455189;28;20045;-76
2021/05/03 20:10:26;;;;;;;3.72;2.00;;;;;;;8.61;37.84;97838.09;10449964;28;20044;-76
2021/05/03 20:15:48;;;;;;;3.03;1.77;;;;;;;8.52;39.56;97833.97;10464046;28;20045;-76
2021/05/03 20:21:09;;;;;;;2.70;1.88;;;;;;;8.47;38.53;97825.88;10436669;28;20041;-76
2021/05/03 20:26:30;;;;;;;5.40;2.45;;;;;;;8.42;38.32;97824.09;10449575;28;20119;-76
2021/05/03 20:31:51;;;;;;;7.05;2.40;;;;;;;8.34;39.02;97829.75;10449116;28;20094;-76
2021/05/03 20:42:52;;;;;;;10.60;6.00;;;;;;;8.28;39.47;97810.53;10469993;28;20426;-76
2021/05/03 20:48:13;;;;;;;5.28;3.10;;;;;;;8.30;39.52;97827.41;10434693;28;20443;-75
2021/05/03 20:53:33;;;;;;;4.25;2.33;;;;;;;8.29;39.86;97825.16;10448125;28;20369;-76
2021/05/03 20:58:56;;;;;;;6.65;3.08;;;;;;;8.23;40.55;97819.16;10448209;28;20041;-76
2021/05/03 21:04:16;;;;;;;5.03;3.10;;;;;;;8.28;41.61;97807.00;10448391;28;20416;-76
2021/05/03 21:09:37;;;;;;;5.13;3.00;;;;;;;8.44;40.41;97799.22;10447703;28;20041;-77
2021/05/03 21:14:57;;;;;;;4.40;2.35;;;;;;;8.57;40.62;97807.16;10460970;28;20048;-76
2021/05/03 21:20:18;;;;;;;5.82;3.22;;;;;;;8.70;40.51;97806.78;10447306;28;20111;-75
2021/05/03 21:25:38;;;;;;;5.13;2.83;;;;;;;8.73;41.90;97796.53;10433728;28;20041;-76
2021/05/03 21:30:59;;;;;;;4.07;2.63;;;;;;;8.70;41.37;97792.88;10460758;28;20044;-76
2021/05/03 21:36:25;;;;;;;3.97;2.38;;;;;;;8.67;41.39;97787.72;10460723;28;20041;-76
2021/05/03 21:41:45;;;;;;;4.47;2.45;;;;;;;8.67;41.57;97787.72;10460734;28;20040;-76
2021/05/03 21:47:06;;;;;;;3.67;2.40;;;;;;;8.59;42.28;97782.31;10460246;28;20048;-75
2021/05/03 21:52:26;;;;;;;4.88;2.53;;;;;;;8.51;42.20;97787.25;10446028;28;20045;-77
2021/05/03 21:57:46;;;;;;;6.03;2.45;;;;;;;8.48;42.26;97771.69;10446063;28;20045;-75
2021/05/03 22:03:07;;;;;;;5.30;2.78;;;;;;;8.45;42.44;97778.44;10459718;28;20045;-75
2021/05/03 22:08:37;;;;;;;5.70;2.85;;;;;;;8.35;42.73;97778.41;10445184;28;20071;-75
2021/05/03 22:19:22;;;;;;;6.07;2.97;;;;;;;8.01;43.50;97768.13;10445589;28;20041;-75
2021/05/03 22:24:43;;;;;;;6.38;3.28;;;;;;;7.85;43.73;97759.25;10445500;28;20045;-76
2021/05/03 22:30:05;;;;;;;6.32;3.05;;;;;;;7.70;44.18;97749.06;10458456;28;20047;-76
2021/05/03 22:35:26;;;;;;;5.72;3.00;;;;;;;7.58;44.47;97742.56;10444115;28;20526;-76
2021/05/03 22:41:17;;;;;;;4.65;3.08;;;;;;;7.44;44.64;97742.19;10457843;28;20392;-75
2021/05/03 22:58:23;;;;;;;5.68;2.63;;;;;;;7.09;45.88;97716.47;10445870;28;20091;-75
2021/05/03 23:20:32;;;;;;;5.70;3.45;;;;;;;6.87;46.92;97684.16;10443614;28;20040;-75
2021/05/03 23:25:53;;;;;;;5.25;3.38;;;;;;;6.78;47.10;97687.59;10442616;28;20102;-75
2021/05/03 23:31:14;;;;;;;4.95;3.50;;;;;;;6.69;47.09;97668.81;10442689;28;20048;-76
2021/05/03 23:36:34;;;;;;;4.95;3.30;;;;;;;6.62;47.48;97675.19;10428548;28;20044;-76
2021/05/03 23:41:56;;;;;;;6.15;2.95;;;;;;;6.57;47.63;97669.31;10442268;28;20071;-76
2021/05/03 23:47:17;;;;;;;3.67;2.42;;;;;;;6.52;47.89;97667.50;10443113;28;20396;-75
2021/05/03 23:52:37;;;;;;;5.63;2.80;;;;;;;6.46;48.69;97664.22;10442502;28;20476;-76
2021/05/03 23:57:57;;;;;;;5.47;3.50;;;;;;;6.38;49.03;97640.66;10442432;28;20056;-76
